createdAt,value
2023-01-29T00:00:16.274Z,43.00
2023-01-29T00:03:07.021Z,44.10
2023-01-29T00:05:37.225Z,35.20
2023-01-29T00:08:12.288Z,23.00
2023-01-29T00:10:39.948Z,32.00
2023-01-29T00:13:08.972Z,24.60
2023-01-29T00:15:37.154Z,24.20
2023-01-29T00:18:06.268Z,24.70
2023-01-29T00:20:36.196Z,17.10
2023-01-29T00:23:03.924Z,22.10
2023-01-29T00:25:31.729Z,23.80
2023-01-29T00:27:59.493Z,21.50
2023-01-29T00:30:27.339Z,25.10
2023-01-29T00:32:55.034Z,23.40
2023-01-29T00:35:25.251Z,26.90
2023-01-29T00:37:55.009Z,27.90
2023-01-29T00:40:23.448Z,25.20
2023-01-29T00:43:11.474Z,22.50
2023-01-29T00:45:40.831Z,21.70
2023-01-29T00:48:10.234Z,25.10
2023-01-29T00:50:38.054Z,23.60
2023-01-29T00:53:06.107Z,29.40
2023-01-29T00:55:34.376Z,27.10
2023-01-29T00:58:02.177Z,22.70
2023-01-29T01:00:30.177Z,29.50
2023-01-29T01:03:07.914Z,27.80
2023-01-29T01:05:39.271Z,29.60
2023-01-29T01:08:27.387Z,29.80
2023-01-29T01:11:05.307Z,21.10
2023-01-29T01:13:34.469Z,26.50
2023-01-29T01:16:02.268Z,26.00
2023-01-29T01:18:32.421Z,24.20
2023-01-29T01:21:01.992Z,25.10
2023-01-29T01:23:29.773Z,22.80
2023-01-29T01:25:59.287Z,26.10
2023-01-29T01:28:29.071Z,26.90
2023-01-29T01:30:56.898Z,21.90
2023-01-29T01:33:24.866Z,28.90
2023-01-29T01:35:53.091Z,30.00
2023-01-29T01:38:20.812Z,27.60
2023-01-29T01:40:49.119Z,25.50
2023-01-29T01:43:16.912Z,23.10
2023-01-29T01:45:46.767Z,25.30
2023-01-29T01:48:27.296Z,23.40
2023-01-29T01:51:06.550Z,22.40
2023-01-29T01:53:42.224Z,21.70
2023-01-29T01:56:16.731Z,24.80
2023-01-29T01:58:53.788Z,23.70
2023-01-29T02:01:28.147Z,31.00
2023-01-29T02:04:26.699Z,30.90
2023-01-29T02:07:16.799Z,23.00
2023-01-29T02:09:54.015Z,25.90
2023-01-29T02:12:23.254Z,23.80
2023-01-29T02:14:52.561Z,18.00
2023-01-29T02:17:20.776Z,18.30
2023-01-29T02:20:24.495Z,21.50
2023-01-29T02:23:01.103Z,20.30
2023-01-29T02:26:22.316Z,23.80
2023-01-29T02:29:30.628Z,15.50
2023-01-29T02:32:21.829Z,23.80
2023-01-29T02:35:23.224Z,21.50
2023-01-29T02:38:18.208Z,21.60
2023-01-29T02:40:55.565Z,22.60
2023-01-29T02:43:38.684Z,22.30
2023-01-29T02:46:16.159Z,22.10
2023-01-29T02:49:02.010Z,24.90
2023-01-29T02:51:38.210Z,14.30
2023-01-29T02:54:24.968Z,20.60
2023-01-29T02:57:02.541Z,22.00
2023-01-29T03:00:07.661Z,18.00
2023-01-29T03:02:57.391Z,20.60
2023-01-29T03:05:45.252Z,18.20
2023-01-29T03:08:37.228Z,16.20
2023-01-29T03:11:07.704Z,19.90
2023-01-29T03:13:40.006Z,20.50
2023-01-29T03:16:33.338Z,17.70
2023-01-29T03:19:19.044Z,17.50
2023-01-29T03:21:59.622Z,18.10
2023-01-29T03:25:14.425Z,17.90
2023-01-29T03:28:11.878Z,21.60
2023-01-29T03:31:10.677Z,15.70
2023-01-29T03:33:50.749Z,18.80
2023-01-29T03:36:39.925Z,17.70
2023-01-29T03:39:11.566Z,14.40
2023-01-29T03:42:21.776Z,17.10
2023-01-29T03:45:42.929Z,13.20
2023-01-29T03:48:56.060Z,20.90
2023-01-29T03:52:04.347Z,20.00
2023-01-29T03:54:58.219Z,14.60
2023-01-29T03:57:56.048Z,17.60
2023-01-29T04:00:32.423Z,18.10
2023-01-29T04:03:08.160Z,19.30
2023-01-29T04:05:49.787Z,12.40
2023-01-29T04:08:28.535Z,15.60
2023-01-29T04:11:06.054Z,16.40
2023-01-29T04:13:36.904Z,16.40
2023-01-29T04:16:10.785Z,14.90
2023-01-29T04:18:39.695Z,13.70
2023-01-29T04:21:07.732Z,16.40
2023-01-29T04:23:36.584Z,15.40
2023-01-29T04:26:27.722Z,16.10
2023-01-29T04:29:38.187Z,14.70
2023-01-29T04:32:31.145Z,12.40
2023-01-29T04:35:12.992Z,16.00
2023-01-29T04:38:11.563Z,16.40
2023-01-29T04:41:03.500Z,11.90
2023-01-29T04:44:11.587Z,11.50
2023-01-29T04:47:20.140Z,14.10
2023-01-29T04:50:26.998Z,9.40
2023-01-29T04:53:14.941Z,12.50
2023-01-29T04:55:47.297Z,11.10
2023-01-29T04:58:36.590Z,10.40
2023-01-29T05:01:11.107Z,7.20
2023-01-29T05:03:43.610Z,10.80
2023-01-29T05:06:13.277Z,13.30
2023-01-29T05:08:42.338Z,13.10
2023-01-29T05:11:11.511Z,12.30
2023-01-29T05:13:42.560Z,7.90
2023-01-29T05:16:21.486Z,9.40
2023-01-29T05:18:49.998Z,13.50
2023-01-29T05:21:19.177Z,9.00
2023-01-29T05:23:59.403Z,7.80
2023-01-29T05:26:46.540Z,9.80
2023-01-29T05:29:14.266Z,8.40
2023-01-29T05:31:45.801Z,8.30
2023-01-29T05:34:13.701Z,8.60
2023-01-29T05:36:41.812Z,10.20
2023-01-29T05:39:09.629Z,9.00
2023-01-29T05:41:38.723Z,13.70
2023-01-29T05:44:06.583Z,9.60
2023-01-29T05:46:34.426Z,8.00
2023-01-29T05:49:02.282Z,9.30
2023-01-29T05:51:30.128Z,9.10
2023-01-29T05:53:57.800Z,11.10
2023-01-29T05:56:29.311Z,4.80
2023-01-29T05:58:57.104Z,9.30
2023-01-29T06:01:26.328Z,8.40
2023-01-29T06:03:54.229Z,9.40
2023-01-29T06:06:22.413Z,11.20
2023-01-29T06:08:50.438Z,14.80
2023-01-29T06:11:18.669Z,12.40
2023-01-29T06:13:46.596Z,9.00
2023-01-29T06:16:17.119Z,11.80
2023-01-29T06:18:44.919Z,9.30
2023-01-29T06:21:15.199Z,8.40
2023-01-29T06:23:43.011Z,5.60
2023-01-29T06:26:14.611Z,7.50
2023-01-29T06:28:43.861Z,7.70
2023-01-29T06:31:27.486Z,8.50
2023-01-29T06:33:59.984Z,8.70
2023-01-29T06:36:32.285Z,9.50
2023-01-29T06:39:00.166Z,8.70
2023-01-29T06:41:28.787Z,8.80
2023-01-29T06:43:56.667Z,10.00
2023-01-29T06:46:24.627Z,9.80
2023-01-29T06:48:53.097Z,6.50
2023-01-29T06:51:23.010Z,6.70
2023-01-29T06:53:50.898Z,8.40
2023-01-29T06:56:18.626Z,10.10
2023-01-29T06:58:47.596Z,6.30
2023-01-29T07:01:34.278Z,13.40
2023-01-29T07:04:04.207Z,5.70
2023-01-29T07:06:33.093Z,11.10
2023-01-29T07:09:01.014Z,11.50
2023-01-29T07:11:28.867Z,8.20
2023-01-29T07:13:56.852Z,7.80
2023-01-29T07:16:26.350Z,5.00
2023-01-29T07:18:54.803Z,7.40
2023-01-29T07:21:24.875Z,9.90
2023-01-29T07:23:52.591Z,6.70
2023-01-29T07:26:20.461Z,6.00
2023-01-29T07:28:48.228Z,7.10
2023-01-29T07:31:16.465Z,6.70
2023-01-29T07:33:46.401Z,7.40
2023-01-29T07:36:16.176Z,6.70
2023-01-29T07:38:43.981Z,9.90
2023-01-29T07:41:12.805Z,5.10
2023-01-29T07:43:40.588Z,6.70
2023-01-29T07:46:08.925Z,6.00
2023-01-29T07:48:37.621Z,9.60
2023-01-29T07:51:06.264Z,8.60
2023-01-29T07:53:34.264Z,6.90
2023-01-29T07:56:02.752Z,9.00
2023-01-29T07:58:30.761Z,7.10
2023-01-29T08:00:59.083Z,10.80
2023-01-29T08:03:26.794Z,6.90
2023-01-29T08:05:54.539Z,12.50
2023-01-29T08:08:23.423Z,14.30
2023-01-29T08:10:51.927Z,15.70
2023-01-29T08:13:19.702Z,21.00
2023-01-29T08:15:50.188Z,20.20
2023-01-29T08:18:18.019Z,8.10
2023-01-29T08:20:45.762Z,19.80
2023-01-29T08:23:17.071Z,11.40
2023-01-29T08:25:45.197Z,17.40
2023-01-29T08:28:13.152Z,12.70
2023-01-29T08:30:41.154Z,6.80
2023-01-29T08:33:10.424Z,8.70
2023-01-29T08:35:41.307Z,10.90
2023-01-29T08:38:09.950Z,28.60
2023-01-29T08:40:37.739Z,9.10
2023-01-29T08:43:09.471Z,12.30
2023-01-29T08:45:42.577Z,13.90
2023-01-29T08:48:13.063Z,12.60
2023-01-29T08:50:41.120Z,10.10
2023-01-29T08:53:10.148Z,7.30
2023-01-29T08:55:41.385Z,17.90
2023-01-29T08:58:11.782Z,7.20
2023-01-29T09:00:39.900Z,14.80
2023-01-29T09:03:08.249Z,4.10
2023-01-29T09:05:38.250Z,7.10
2023-01-29T09:08:08.945Z,7.80
2023-01-29T09:10:36.859Z,8.40
2023-01-29T09:13:04.744Z,13.90
2023-01-29T09:15:32.817Z,11.00
2023-01-29T09:18:05.413Z,9.80
2023-01-29T09:20:34.049Z,8.10
2023-01-29T09:23:11.500Z,7.00
2023-01-29T09:25:40.285Z,5.80
2023-01-29T09:28:08.125Z,9.90
2023-01-29T09:30:37.975Z,8.90
2023-01-29T09:33:07.499Z,21.70
2023-01-29T09:35:35.490Z,18.40
2023-01-29T09:38:03.404Z,22.20
2023-01-29T09:40:40.230Z,14.70
2023-01-29T09:43:23.306Z,15.00
2023-01-29T09:46:05.802Z,13.90
2023-01-29T09:48:36.859Z,18.20
2023-01-29T09:51:19.554Z,12.30
2023-01-29T09:54:10.908Z,13.80
2023-01-29T09:56:39.191Z,14.00
2023-01-29T09:59:14.467Z,13.30
2023-01-29T10:01:55.606Z,24.50
2023-01-29T10:04:42.380Z,9.70
2023-01-29T10:07:45.329Z,11.80
2023-01-29T10:10:31.712Z,17.00
2023-01-29T10:13:21.243Z,14.10
2023-01-29T10:16:53.112Z,15.00
2023-01-29T10:19:56.365Z,12.80
2023-01-29T10:25:25.059Z,8.70
2023-01-29T10:27:59.859Z,6.70
2023-01-29T10:30:41.800Z,16.80
2023-01-29T10:33:49.514Z,20.80
2023-01-29T10:36:33.068Z,16.30
2023-01-29T10:39:00.900Z,14.80
2023-01-29T10:42:12.094Z,7.10
2023-01-29T10:45:17.972Z,17.60
2023-01-29T10:48:49.861Z,13.50
2023-01-29T10:52:00.285Z,17.40
2023-01-29T10:55:04.145Z,59.90
2023-01-29T10:58:04.967Z,12.90
2023-01-29T11:00:41.392Z,15.10
2023-01-29T11:03:27.955Z,6.40
2023-01-29T11:06:27.346Z,10.80
2023-01-29T11:09:35.231Z,10.60
2023-01-29T11:12:13.364Z,7.70
2023-01-29T11:15:07.065Z,10.10
2023-01-29T11:17:36.651Z,8.20
2023-01-29T11:20:25.152Z,13.00
2023-01-29T11:22:55.830Z,10.20
2023-01-29T11:25:24.801Z,8.70
2023-01-29T11:28:00.977Z,14.20
2023-01-29T11:30:34.115Z,10.80
2023-01-29T11:33:26.430Z,11.60
2023-01-29T11:35:56.115Z,7.30
2023-01-29T11:38:31.948Z,8.30
2023-01-29T11:41:19.959Z,8.20
2023-01-29T11:43:47.740Z,9.30
2023-01-29T11:46:17.216Z,20.40
2023-01-29T11:48:58.960Z,13.80
2023-01-29T11:51:37.542Z,9.90
2023-01-29T11:54:06.569Z,12.20
2023-01-29T11:56:42.968Z,8.60
2023-01-29T11:59:44.660Z,8.60
2023-01-29T12:02:31.674Z,7.00
2023-01-29T12:05:19.642Z,9.40
2023-01-29T12:07:51.615Z,9.00
2023-01-29T12:10:41.142Z,8.50
2023-01-29T12:13:27.132Z,88.60
2023-01-29T12:16:40.529Z,37.70
2023-01-29T12:19:36.704Z,92.80
2023-01-29T12:22:58.317Z,19.90
2023-01-29T12:25:35.248Z,9.20
2023-01-29T12:28:57.599Z,16.80
2023-01-29T12:31:56.319Z,18.40
2023-01-29T12:34:48.359Z,14.50
2023-01-29T12:37:42.292Z,13.70
2023-01-29T12:40:17.588Z,13.30
2023-01-29T12:42:56.614Z,11.10
2023-01-29T12:45:29.486Z,12.10
2023-01-29T12:48:05.616Z,12.20
2023-01-29T12:50:37.021Z,7.90
2023-01-29T12:53:34.165Z,11.50
2023-01-29T12:56:18.510Z,13.70
2023-01-29T12:58:52.837Z,6.70
2023-01-29T13:01:36.927Z,1.60
2023-01-29T13:04:37.063Z,4.70
2023-01-29T13:07:19.394Z,1.50
2023-01-29T13:09:58.169Z,1.50
2023-01-29T13:12:27.393Z,2.60
2023-01-29T13:15:01.439Z,2.20
2023-01-29T13:17:51.183Z,1.20
2023-01-29T13:20:31.744Z,1.60
2023-01-29T13:23:44.447Z,8.00
2023-01-29T13:26:20.288Z,8.90
2023-01-29T13:28:49.618Z,6.30
2023-01-29T13:31:37.842Z,12.10
2023-01-29T13:34:19.552Z,10.20
2023-01-29T13:36:52.720Z,8.10
2023-01-29T13:39:37.971Z,8.00
2023-01-29T13:42:20.147Z,4.10
2023-01-29T13:44:56.634Z,2.20
2023-01-29T13:47:29.331Z,1.50
2023-01-29T13:50:49.821Z,2.10
2023-01-29T13:53:27.353Z,1.30
2023-01-29T13:55:55.253Z,2.00
2023-01-29T13:58:31.798Z,2.10
2023-01-29T14:01:01.785Z,1.30
2023-01-29T14:03:35.907Z,5.90
2023-01-29T14:06:42.282Z,3.60
2023-01-29T14:09:35.020Z,3.40
2023-01-29T14:12:25.066Z,3.50
2023-01-29T14:14:54.817Z,3.50
2023-01-29T14:17:27.027Z,6.30
2023-01-29T14:20:19.693Z,5.30
2023-01-29T14:22:57.755Z,8.00
2023-01-29T14:25:35.160Z,3.50
2023-01-29T14:28:14.316Z,4.90
2023-01-29T14:30:49.260Z,1.90
2023-01-29T14:33:32.333Z,1.00
2023-01-29T14:36:09.267Z,2.00
2023-01-29T14:38:47.425Z,2.20
2023-01-29T14:41:30.451Z,4.50
2023-01-29T14:44:59.133Z,5.30
2023-01-29T14:47:27.009Z,5.50
2023-01-29T14:49:59.670Z,7.30
2023-01-29T14:52:41.570Z,7.10
2023-01-29T14:55:31.223Z,9.50
2023-01-29T14:57:59.632Z,11.60
2023-01-29T15:00:32.955Z,8.40
2023-01-29T15:03:12.760Z,9.80
2023-01-29T15:05:42.528Z,8.90
2023-01-29T15:08:30.122Z,9.20
2023-01-29T15:11:27.500Z,7.40
2023-01-29T15:14:40.949Z,18.00
2023-01-29T15:17:09.427Z,18.00
2023-01-29T15:19:45.876Z,27.70
2023-01-29T15:22:20.021Z,11.20
2023-01-29T15:25:22.450Z,16.50
2023-01-29T15:27:51.135Z,16.20
2023-01-29T15:30:29.703Z,7.10
2023-01-29T15:33:05.635Z,18.10
2023-01-29T15:35:43.416Z,17.80
2023-01-29T15:38:23.324Z,11.70
2023-01-29T15:41:17.411Z,11.90
2023-01-29T15:43:58.548Z,4.50
2023-01-29T15:46:36.523Z,11.80
2023-01-29T15:49:11.849Z,4.60
2023-01-29T15:51:39.807Z,7.10
2023-01-29T15:54:15.967Z,7.40
2023-01-29T15:56:52.743Z,5.50
2023-01-29T15:59:35.897Z,12.40
2023-01-29T16:02:39.582Z,7.40
2023-01-29T16:05:40.912Z,3.00
2023-01-29T16:08:16.391Z,27.30
2023-01-29T16:10:48.286Z,33.80
2023-01-29T16:13:31.096Z,43.20
2023-01-29T16:16:31.019Z,34.90
2023-01-29T16:19:01.390Z,34.90
2023-01-29T16:21:40.004Z,42.50
2023-01-29T16:24:22.707Z,47.60
2023-01-29T16:27:04.787Z,44.10
2023-01-29T16:29:35.457Z,53.20
2023-01-29T16:32:05.783Z,39.20
2023-01-29T16:34:43.156Z,19.20
2023-01-29T16:37:40.498Z,19.00
2023-01-29T16:40:33.408Z,5.60
2023-01-29T16:43:46.828Z,6.00
2023-01-29T16:46:31.914Z,4.70
2023-01-29T16:49:01.122Z,5.40
2023-01-29T16:51:36.985Z,5.90
2023-01-29T16:54:26.814Z,4.10
2023-01-29T16:57:00.235Z,2.50
2023-01-29T16:59:38.407Z,2.00
2023-01-29T17:02:37.100Z,5.80
2023-01-29T17:05:21.808Z,4.10
2023-01-29T17:07:50.726Z,8.90
2023-01-29T17:10:23.280Z,7.80
2023-01-29T17:13:05.449Z,11.10
2023-01-29T17:15:47.487Z,10.60
2023-01-29T17:18:25.783Z,5.90
2023-01-29T17:20:56.112Z,7.00
2023-01-29T17:23:27.767Z,5.00
2023-01-29T17:25:55.763Z,3.20
2023-01-29T17:28:23.808Z,4.70
2023-01-29T17:31:05.312Z,4.90
2023-01-29T17:33:38.342Z,3.30
2023-01-29T17:36:12.488Z,2.10
2023-01-29T17:38:42.544Z,2.70
2023-01-29T17:41:32.901Z,2.10
2023-01-29T17:44:00.934Z,4.50
2023-01-29T17:46:29.140Z,2.40
2023-01-29T17:48:58.629Z,4.10
2023-01-29T17:51:32.064Z,2.10
2023-01-29T17:54:02.083Z,1.90
2023-01-29T17:56:31.466Z,1.60
2023-01-29T17:58:59.732Z,2.60
2023-01-29T18:01:30.219Z,8.40
2023-01-29T18:04:04.197Z,7.10
2023-01-29T18:06:36.520Z,4.00
2023-01-29T18:11:54.750Z,9.50
2023-01-29T18:14:23.688Z,4.20
2023-01-29T18:16:52.520Z,5.50
2023-01-29T18:19:31.600Z,3.60
2023-01-29T18:22:02.440Z,3.30
2023-01-29T18:24:34.219Z,2.60
2023-01-29T18:27:04.857Z,4.40
2023-01-29T18:29:32.815Z,20.50
2023-01-29T18:32:01.304Z,9.80
2023-01-29T18:34:29.345Z,8.80
2023-01-29T18:36:57.761Z,40.90
2023-01-29T18:39:26.587Z,8.30
2023-01-29T18:41:54.825Z,20.70
2023-01-29T18:44:22.667Z,5.30
2023-01-29T18:46:53.113Z,10.00
2023-01-29T18:49:21.411Z,7.40
2023-01-29T18:51:49.201Z,4.40
2023-01-29T18:54:18.736Z,10.20
2023-01-29T18:57:08.689Z,10.90
2023-01-29T18:59:34.861Z,6.90
2023-01-29T19:02:05.172Z,10.60
2023-01-29T19:04:34.309Z,7.20
2023-01-29T19:07:02.119Z,8.70
2023-01-29T19:09:37.238Z,8.30
2023-01-29T19:12:06.021Z,7.80
2023-01-29T19:14:36.351Z,25.40
2023-01-29T19:17:05.083Z,11.40
2023-01-29T19:19:34.113Z,6.70
2023-01-29T19:22:02.441Z,6.10
2023-01-29T19:24:36.438Z,5.10
2023-01-29T19:29:37.466Z,5.70
2023-01-29T19:32:06.332Z,1.10
2023-01-29T19:34:35.370Z,2.10
2023-01-29T19:37:05.349Z,4.20
2023-01-29T19:39:34.071Z,1.20
2023-01-29T19:42:02.465Z,0.40
2023-01-29T19:44:31.351Z,0.60
2023-01-29T19:47:03.371Z,0.50
2023-01-29T19:49:31.471Z,0.60
2023-01-29T19:52:01.131Z,1.40
2023-01-29T19:54:29.701Z,0.80
2023-01-29T19:57:00.125Z,0.60
2023-01-29T19:59:27.955Z,1.20
2023-01-29T20:01:56.073Z,0.60
2023-01-29T20:04:24.954Z,1.40
2023-01-29T20:06:52.680Z,1.00
2023-01-29T20:09:21.545Z,1.00
2023-01-29T20:11:49.339Z,1.90
2023-01-29T20:14:19.642Z,1.80
2023-01-29T20:16:49.863Z,0.50
2023-01-29T20:19:20.030Z,0.40
2023-01-29T20:21:52.197Z,0.50
2023-01-29T20:24:20.318Z,0.60
2023-01-29T20:26:50.636Z,0.50
2023-01-29T20:29:18.619Z,1.80
2023-01-29T20:31:46.714Z,0.40
2023-01-29T20:34:15.108Z,0.50
2023-01-29T20:36:44.143Z,0.30
2023-01-29T20:39:12.025Z,1.10
2023-01-29T20:41:42.116Z,1.60
2023-01-29T20:44:10.795Z,3.00
2023-01-29T20:46:39.648Z,2.30
2023-01-29T20:49:07.636Z,0.50
2023-01-29T20:51:37.077Z,1.90
2023-01-29T20:54:07.607Z,4.40
2023-01-29T20:56:36.947Z,7.80
2023-01-29T20:59:09.288Z,4.40
2023-01-29T21:01:37.222Z,4.60
2023-01-29T21:04:05.079Z,4.10
2023-01-29T21:06:34.789Z,4.80
2023-01-29T21:09:03.740Z,3.30
2023-01-29T21:11:33.772Z,3.20
2023-01-29T21:14:05.791Z,7.50
2023-01-29T21:16:39.114Z,3.60
2023-01-29T21:19:15.263Z,6.60
2023-01-29T21:21:44.106Z,9.10
2023-01-29T21:24:13.112Z,2.70
2023-01-29T21:26:41.312Z,3.80
2023-01-29T21:29:12.908Z,2.20
2023-01-29T21:31:42.384Z,1.20
2023-01-29T21:34:11.252Z,4.70
2023-01-29T21:36:41.397Z,5.60
2023-01-29T21:39:16.836Z,3.90
2023-01-29T21:42:08.923Z,2.30
2023-01-29T21:44:37.931Z,1.00
2023-01-29T21:47:12.476Z,1.30
2023-01-29T21:49:51.867Z,0.70
2023-01-29T21:52:19.619Z,0.60
2023-01-29T21:54:49.807Z,1.30
2023-01-29T21:57:18.031Z,2.20
2023-01-29T21:59:54.409Z,0.60
2023-01-29T22:02:26.558Z,0.90
2023-01-29T22:05:05.310Z,2.40
2023-01-29T22:07:44.410Z,0.60
2023-01-29T22:10:12.872Z,1.70
2023-01-29T22:12:41.238Z,0.40
2023-01-29T22:15:11.250Z,1.00
2023-01-29T22:17:41.503Z,0.50
2023-01-29T22:20:16.566Z,2.30
2023-01-29T22:22:46.414Z,1.10
2023-01-29T22:25:20.092Z,1.40
2023-01-29T22:27:48.261Z,3.90
2023-01-29T22:30:16.852Z,4.30
2023-01-29T22:32:45.441Z,2.10
2023-01-29T22:35:13.436Z,0.50
2023-01-29T22:37:43.181Z,3.20
2023-01-29T22:40:14.428Z,2.10
2023-01-29T22:42:45.642Z,1.90
2023-01-29T22:45:13.734Z,2.20
2023-01-29T22:47:44.818Z,1.70
2023-01-29T22:50:13.378Z,1.70
2023-01-29T22:52:43.689Z,5.00
2023-01-29T22:55:13.274Z,1.90
2023-01-29T22:57:40.976Z,2.00
2023-01-29T23:00:11.334Z,1.30
2023-01-29T23:02:41.286Z,1.10
2023-01-29T23:05:09.468Z,0.60
2023-01-29T23:07:38.566Z,3.20
2023-01-29T23:10:08.056Z,0.60
2023-01-29T23:12:37.820Z,0.60
2023-01-29T23:15:07.646Z,2.20
2023-01-29T23:17:36.989Z,1.50
2023-01-29T23:20:06.658Z,3.80
2023-01-29T23:22:34.855Z,2.90
2023-01-29T23:25:04.863Z,0.30
2023-01-29T23:27:32.624Z,3.50
2023-01-29T23:30:03.952Z,1.90
2023-01-29T23:32:35.586Z,3.70
2023-01-29T23:35:07.553Z,3.40
2023-01-29T23:37:37.195Z,3.60
2023-01-29T23:40:07.768Z,2.20
2023-01-29T23:42:37.912Z,1.90
2023-01-29T23:45:07.069Z,3.10
2023-01-29T23:47:36.866Z,1.20
2023-01-29T23:50:05.129Z,3.60
2023-01-29T23:52:34.664Z,2.10
2023-01-29T23:55:02.934Z,3.00
2023-01-29T23:57:36.032Z,2.60
